sensor_id;sensor_type;location;lat;lon;timestamp;temperature;humidity
18073;DHT22;9161;47.348;9.648;2022-08-14T00:04:02;15.60;99.90
18073;DHT22;9161;47.348;9.648;2022-08-14T00:09:07;15.50;99.90
18073;DHT22;9161;47.348;9.648;2022-08-14T00:13:51;15.20;99.90
18073;DHT22;9161;47.348;9.648;2022-08-14T00:18:35;15.10;99.90
18073;DHT22;9161;47.348;9.648;2022-08-14T00:23:38;15.30;99.90
18073;DHT22;9161;47.348;9.648;2022-08-14T00:28:23;15.40;99.90
18073;DHT22;9161;47.348;9.648;2022-08-14T00:33:13;15.40;99.90
18073;DHT22;9161;47.348;9.648;2022-08-14T00:37:58;15.20;99.90
18073;DHT22;9161;47.348;9.648;2022-08-14T00:42:42;15.10;99.90
18073;DHT22;9161;47.348;9.648;2022-08-14T00:47:39;15.30;99.90
18073;DHT22;9161;47.348;9.648;2022-08-14T00:52:26;15.00;99.90
18073;DHT22;9161;47.348;9.648;2022-08-14T00:57:09;15.00;99.90
18073;DHT22;9161;47.348;9.648;2022-08-14T01:01:55;15.00;99.90
18073;DHT22;9161;47.348;9.648;2022-08-14T01:06:42;14.90;99.90
18073;DHT22;9161;47.348;9.648;2022-08-14T01:11:27;14.80;99.90
18073;DHT22;9161;47.348;9.648;2022-08-14T01:16:17;14.80;99.90
18073;DHT22;9161;47.348;9.648;2022-08-14T01:21:10;14.70;99.90
18073;DHT22;9161;47.348;9.648;2022-08-14T01:25:59;14.70;99.90
18073;DHT22;9161;47.348;9.648;2022-08-14T01:30:45;14.60;99.90
18073;DHT22;9161;47.348;9.648;2022-08-14T01:35:30;14.90;99.90
18073;DHT22;9161;47.348;9.648;2022-08-14T01:40:33;14.70;99.90
18073;DHT22;9161;47.348;9.648;2022-08-14T01:45:24;14.60;99.90
18073;DHT22;9161;47.348;9.648;2022-08-14T01:50:08;14.30;99.90
18073;DHT22;9161;47.348;9.648;2022-08-14T01:54:55;14.20;99.90
18073;DHT22;9161;47.348;9.648;2022-08-14T01:59:39;14.30;99.90
18073;DHT22;9161;47.348;9.648;2022-08-14T02:04:29;14.10;99.90
18073;DHT22;9161;47.348;9.648;2022-08-14T02:09:33;14.00;99.90
18073;DHT22;9161;47.348;9.648;2022-08-14T02:14:21;13.80;99.90
18073;DHT22;9161;47.348;9.648;2022-08-14T02:19:14;13.80;99.90
18073;DHT22;9161;47.348;9.648;2022-08-14T02:24:00;13.60;99.90
18073;DHT22;9161;47.348;9.648;2022-08-14T02:28:52;13.80;99.90
18073;DHT22;9161;47.348;9.648;2022-08-14T02:33:41;13.80;99.90
18073;DHT22;9161;47.348;9.648;2022-08-14T02:38:24;13.60;99.90
18073;DHT22;9161;47.348;9.648;2022-08-14T02:43:16;13.40;99.90
18073;DHT22;9161;47.348;9.648;2022-08-14T02:48:04;13.40;99.90
18073;DHT22;9161;47.348;9.648;2022-08-14T02:53:08;13.30;99.90
18073;DHT22;9161;47.348;9.648;2022-08-14T02:57:56;13.50;99.90
18073;DHT22;9161;47.348;9.648;2022-08-14T03:02:48;13.50;99.90
18073;DHT22;9161;47.348;9.648;2022-08-14T03:07:40;13.70;99.90
18073;DHT22;9161;47.348;9.648;2022-08-14T03:12:24;13.70;99.90
18073;DHT22;9161;47.348;9.648;2022-08-14T03:17:13;13.70;99.90
18073;DHT22;9161;47.348;9.648;2022-08-14T03:22:00;13.60;99.90
18073;DHT22;9161;47.348;9.648;2022-08-14T03:26:50;13.40;99.90
18073;DHT22;9161;47.348;9.648;2022-08-14T03:31:39;13.20;99.90
18073;DHT22;9161;47.348;9.648;2022-08-14T03:36:24;13.40;99.90
18073;DHT22;9161;47.348;9.648;2022-08-14T03:41:29;13.30;99.90
18073;DHT22;9161;47.348;9.648;2022-08-14T03:46:15;13.20;99.90
18073;DHT22;9161;47.348;9.648;2022-08-14T03:51:20;13.10;99.90
18073;DHT22;9161;47.348;9.648;2022-08-14T03:56:05;13.00;99.90
18073;DHT22;9161;47.348;9.648;2022-08-14T04:00:50;12.90;99.90
18073;DHT22;9161;47.348;9.648;2022-08-14T04:05:35;12.80;99.90
18073;DHT22;9161;47.348;9.648;2022-08-14T04:10:30;12.80;99.90
18073;DHT22;9161;47.348;9.648;2022-08-14T04:15:14;12.60;99.90
18073;DHT22;9161;47.348;9.648;2022-08-14T04:20:02;12.70;99.90
18073;DHT22;9161;47.348;9.648;2022-08-14T04:24:50;12.90;99.90
18073;DHT22;9161;47.348;9.648;2022-08-14T04:29:36;12.90;99.90
18073;DHT22;9161;47.348;9.648;2022-08-14T04:34:20;13.00;99.90
18073;DHT22;9161;47.348;9.648;2022-08-14T04:39:10;12.90;99.90
18073;DHT22;9161;47.348;9.648;2022-08-14T04:44:12;12.90;99.90
18073;DHT22;9161;47.348;9.648;2022-08-14T04:49:16;13.00;99.90
18073;DHT22;9161;47.348;9.648;2022-08-14T04:54:00;13.00;99.90
18073;DHT22;9161;47.348;9.648;2022-08-14T04:58:45;13.00;99.90
18073;DHT22;9161;47.348;9.648;2022-08-14T05:03:31;13.10;99.90
18073;DHT22;9161;47.348;9.648;2022-08-14T05:08:19;13.30;99.90
18073;DHT22;9161;47.348;9.648;2022-08-14T05:13:24;13.50;99.90
18073;DHT22;9161;47.348;9.648;2022-08-14T05:18:26;13.70;99.90
18073;DHT22;9161;47.348;9.648;2022-08-14T05:23:35;13.80;99.90
18073;DHT22;9161;47.348;9.648;2022-08-14T05:28:24;13.90;99.90
18073;DHT22;9161;47.348;9.648;2022-08-14T05:33:09;14.00;99.90
18073;DHT22;9161;47.348;9.648;2022-08-14T05:37:55;14.10;99.90
18073;DHT22;9161;47.348;9.648;2022-08-14T05:42:39;14.20;99.90
18073;DHT22;9161;47.348;9.648;2022-08-14T05:47:27;14.40;99.90
18073;DHT22;9161;47.348;9.648;2022-08-14T05:52:20;14.80;99.90
18073;DHT22;9161;47.348;9.648;2022-08-14T05:57:21;15.20;99.90
18073;DHT22;9161;47.348;9.648;2022-08-14T06:02:06;15.60;99.90
18073;DHT22;9161;47.348;9.648;2022-08-14T06:06:51;16.00;99.90
18073;DHT22;9161;47.348;9.648;2022-08-14T06:11:38;16.50;99.90
18073;DHT22;9161;47.348;9.648;2022-08-14T06:16:25;17.00;99.90
18073;DHT22;9161;47.348;9.648;2022-08-14T06:21:09;17.50;99.90
18073;DHT22;9161;47.348;9.648;2022-08-14T06:25:54;18.10;99.90
18073;DHT22;9161;47.348;9.648;2022-08-14T06:30:38;18.60;99.90
18073;DHT22;9161;47.348;9.648;2022-08-14T06:35:29;19.00;99.90
18073;DHT22;9161;47.348;9.648;2022-08-14T06:40:15;19.30;99.90
18073;DHT22;9161;47.348;9.648;2022-08-14T06:45:10;19.70;99.90
18073;DHT22;9161;47.348;9.648;2022-08-14T06:49:55;20.30;99.90
18073;DHT22;9161;47.348;9.648;2022-08-14T06:54:41;20.80;99.90
18073;DHT22;9161;47.348;9.648;2022-08-14T06:59:25;21.10;99.90
18073;DHT22;9161;47.348;9.648;2022-08-14T07:04:09;21.50;99.90
18073;DHT22;9161;47.348;9.648;2022-08-14T07:09:14;21.80;99.90
18073;DHT22;9161;47.348;9.648;2022-08-14T07:14:05;22.10;99.90
18073;DHT22;9161;47.348;9.648;2022-08-14T07:18:50;22.20;99.90
18073;DHT22;9161;47.348;9.648;2022-08-14T07:23:35;22.70;99.90
18073;DHT22;9161;47.348;9.648;2022-08-14T07:28:27;23.20;99.90
18073;DHT22;9161;47.348;9.648;2022-08-14T07:33:12;23.60;99.90
18073;DHT22;9161;47.348;9.648;2022-08-14T07:37:56;23.90;99.90
18073;DHT22;9161;47.348;9.648;2022-08-14T07:42:40;24.30;99.90
18073;DHT22;9161;47.348;9.648;2022-08-14T07:47:27;24.70;99.90
18073;DHT22;9161;47.348;9.648;2022-08-14T07:52:12;25.20;99.50
18073;DHT22;9161;47.348;9.648;2022-08-14T07:57:03;25.60;98.40
18073;DHT22;9161;47.348;9.648;2022-08-14T08:01:58;26.20;96.80
18073;DHT22;9161;47.348;9.648;2022-08-14T08:06:43;26.40;95.40
18073;DHT22;9161;47.348;9.648;2022-08-14T08:11:31;26.80;95.10
18073;DHT22;9161;47.348;9.648;2022-08-14T08:16:18;27.10;94.60
18073;DHT22;9161;47.348;9.648;2022-08-14T08:21:06;27.10;93.80
18073;DHT22;9161;47.348;9.648;2022-08-14T08:25:53;27.50;93.60
18073;DHT22;9161;47.348;9.648;2022-08-14T08:30:40;27.90;93.10
18073;DHT22;9161;47.348;9.648;2022-08-14T08:35:32;28.20;91.70
18073;DHT22;9161;47.348;9.648;2022-08-14T08:40:29;28.60;90.60
18073;DHT22;9161;47.348;9.648;2022-08-14T08:45:23;28.30;89.70
18073;DHT22;9161;47.348;9.648;2022-08-14T08:50:18;28.90;90.10
18073;DHT22;9161;47.348;9.648;2022-08-14T08:55:11;29.50;90.10
18073;DHT22;9161;47.348;9.648;2022-08-14T08:59:56;29.90;87.50
18073;DHT22;9161;47.348;9.648;2022-08-14T09:04:41;30.10;83.60
18073;DHT22;9161;47.348;9.648;2022-08-14T09:09:35;29.70;83.70
18073;DHT22;9161;47.348;9.648;2022-08-14T09:14:39;30.20;85.80
18073;DHT22;9161;47.348;9.648;2022-08-14T09:19:23;30.60;81.10
18073;DHT22;9161;47.348;9.648;2022-08-14T09:24:08;31.00;83.40
18073;DHT22;9161;47.348;9.648;2022-08-14T09:29:13;31.30;82.20
18073;DHT22;9161;47.348;9.648;2022-08-14T09:34:10;31.60;80.40
18073;DHT22;9161;47.348;9.648;2022-08-14T09:39:15;32.00;75.60
18073;DHT22;9161;47.348;9.648;2022-08-14T09:44:08;32.20;76.20
18073;DHT22;9161;47.348;9.648;2022-08-14T09:49:05;32.50;76.00
18073;DHT22;9161;47.348;9.648;2022-08-14T09:54:00;32.60;77.20
18073;DHT22;9161;47.348;9.648;2022-08-14T09:59:10;32.80;78.30
18073;DHT22;9161;47.348;9.648;2022-08-14T10:03:56;32.70;77.90
18073;DHT22;9161;47.348;9.648;2022-08-14T10:08:46;33.20;77.10
18073;DHT22;9161;47.348;9.648;2022-08-14T10:13:32;33.40;77.10
18073;DHT22;9161;47.348;9.648;2022-08-14T10:18:34;32.70;75.70
18073;DHT22;9161;47.348;9.648;2022-08-14T10:23:19;33.30;75.60
18073;DHT22;9161;47.348;9.648;2022-08-14T10:28:05;34.00;73.10
18073;DHT22;9161;47.348;9.648;2022-08-14T10:33:09;34.90;72.40
18073;DHT22;9161;47.348;9.648;2022-08-14T10:37:54;35.20;69.70
18073;DHT22;9161;47.348;9.648;2022-08-14T10:42:42;35.20;71.20
18073;DHT22;9161;47.348;9.648;2022-08-14T10:47:34;35.80;70.80
18073;DHT22;9161;47.348;9.648;2022-08-14T10:52:38;36.00;68.30
18073;DHT22;9161;47.348;9.648;2022-08-14T10:57:25;36.30;70.30
18073;DHT22;9161;47.348;9.648;2022-08-14T11:02:17;36.50;70.70
18073;DHT22;9161;47.348;9.648;2022-08-14T11:07:18;36.70;68.80
18073;DHT22;9161;47.348;9.648;2022-08-14T11:12:03;35.70;70.10
18073;DHT22;9161;47.348;9.648;2022-08-14T11:17:06;35.60;72.00
18073;DHT22;9161;47.348;9.648;2022-08-14T11:21:50;34.90;73.20
18073;DHT22;9161;47.348;9.648;2022-08-14T11:26:39;34.70;74.30
18073;DHT22;9161;47.348;9.648;2022-08-14T11:31:25;34.70;75.40
18073;DHT22;9161;47.348;9.648;2022-08-14T11:36:22;34.80;74.20
18073;DHT22;9161;47.348;9.648;2022-08-14T11:41:27;34.80;74.10
18073;DHT22;9161;47.348;9.648;2022-08-14T11:46:15;35.30;71.60
18073;DHT22;9161;47.348;9.648;2022-08-14T11:51:19;35.90;72.20
18073;DHT22;9161;47.348;9.648;2022-08-14T11:56:17;36.10;70.60
18073;DHT22;9161;47.348;9.648;2022-08-14T12:01:10;36.70;70.10
18073;DHT22;9161;47.348;9.648;2022-08-14T12:06:05;36.00;69.50
18073;DHT22;9161;47.348;9.648;2022-08-14T12:11:11;36.20;69.80
18073;DHT22;9161;47.348;9.648;2022-08-14T12:15:57;35.90;69.10
18073;DHT22;9161;47.348;9.648;2022-08-14T12:20:52;35.30;68.70
18073;DHT22;9161;47.348;9.648;2022-08-14T12:25:42;35.50;70.00
18073;DHT22;9161;47.348;9.648;2022-08-14T12:30:42;35.50;68.80
18073;DHT22;9161;47.348;9.648;2022-08-14T12:35:35;36.30;65.20
18073;DHT22;9161;47.348;9.648;2022-08-14T12:40:20;36.40;66.00
18073;DHT22;9161;47.348;9.648;2022-08-14T12:45:08;36.50;64.00
18073;DHT22;9161;47.348;9.648;2022-08-14T12:49:58;37.00;65.50
18073;DHT22;9161;47.348;9.648;2022-08-14T12:54:44;36.80;65.70
18073;DHT22;9161;47.348;9.648;2022-08-14T12:59:47;36.60;66.70
18073;DHT22;9161;47.348;9.648;2022-08-14T13:04:33;36.60;63.00
18073;DHT22;9161;47.348;9.648;2022-08-14T13:09:18;36.00;62.30
18073;DHT22;9161;47.348;9.648;2022-08-14T13:14:04;35.40;64.00
18073;DHT22;9161;47.348;9.648;2022-08-14T13:18:58;35.00;66.00
18073;DHT22;9161;47.348;9.648;2022-08-14T13:23:45;34.40;67.00
18073;DHT22;9161;47.348;9.648;2022-08-14T13:28:30;34.10;65.00
18073;DHT22;9161;47.348;9.648;2022-08-14T13:33:36;33.70;67.30
18073;DHT22;9161;47.348;9.648;2022-08-14T13:38:21;33.50;67.70
18073;DHT22;9161;47.348;9.648;2022-08-14T13:43:12;33.00;66.60
18073;DHT22;9161;47.348;9.648;2022-08-14T13:47:56;32.90;68.40
18073;DHT22;9161;47.348;9.648;2022-08-14T13:52:41;32.80;66.00
18073;DHT22;9161;47.348;9.648;2022-08-14T13:57:38;31.90;67.40
18073;DHT22;9161;47.348;9.648;2022-08-14T14:02:43;32.00;67.90
18073;DHT22;9161;47.348;9.648;2022-08-14T14:07:27;31.80;68.40
18073;DHT22;9161;47.348;9.648;2022-08-14T14:12:14;31.70;68.60
18073;DHT22;9161;47.348;9.648;2022-08-14T14:17:18;31.90;70.20
18073;DHT22;9161;47.348;9.648;2022-08-14T14:22:06;32.20;69.60
18073;DHT22;9161;47.348;9.648;2022-08-14T14:26:51;33.20;68.90
18073;DHT22;9161;47.348;9.648;2022-08-14T14:31:35;33.10;67.90
18073;DHT22;9161;47.348;9.648;2022-08-14T14:36:22;32.60;68.50
18073;DHT22;9161;47.348;9.648;2022-08-14T14:41:12;32.10;70.60
18073;DHT22;9161;47.348;9.648;2022-08-14T14:45:58;31.70;70.70
18073;DHT22;9161;47.348;9.648;2022-08-14T14:50:48;31.90;70.00
18073;DHT22;9161;47.348;9.648;2022-08-14T14:55:34;32.80;68.90
18073;DHT22;9161;47.348;9.648;2022-08-14T15:00:40;33.70;68.60
18073;DHT22;9161;47.348;9.648;2022-08-14T15:05:26;34.40;65.70
18073;DHT22;9161;47.348;9.648;2022-08-14T15:10:12;34.20;66.00
18073;DHT22;9161;47.348;9.648;2022-08-14T15:15:12;33.30;66.60
18073;DHT22;9161;47.348;9.648;2022-08-14T15:19:58;33.50;66.70
18073;DHT22;9161;47.348;9.648;2022-08-14T15:24:45;33.50;67.10
18073;DHT22;9161;47.348;9.648;2022-08-14T15:29:31;33.40;67.90
18073;DHT22;9161;47.348;9.648;2022-08-14T15:34:24;33.30;64.80
18073;DHT22;9161;47.348;9.648;2022-08-14T15:39:28;34.00;65.40
18073;DHT22;9161;47.348;9.648;2022-08-14T15:44:19;34.10;66.40
18073;DHT22;9161;47.348;9.648;2022-08-14T15:49:08;34.20;64.90
18073;DHT22;9161;47.348;9.648;2022-08-14T15:53:52;34.30;66.10
18073;DHT22;9161;47.348;9.648;2022-08-14T15:58:37;34.40;64.80
18073;DHT22;9161;47.348;9.648;2022-08-14T16:03:21;34.00;63.90
18073;DHT22;9161;47.348;9.648;2022-08-14T16:08:16;33.90;66.20
18073;DHT22;9161;47.348;9.648;2022-08-14T16:13:11;33.30;65.90
18073;DHT22;9161;47.348;9.648;2022-08-14T16:18:16;32.90;67.00
18073;DHT22;9161;47.348;9.648;2022-08-14T16:23:01;33.00;65.20
18073;DHT22;9161;47.348;9.648;2022-08-14T16:27:51;32.60;67.30
18073;DHT22;9161;47.348;9.648;2022-08-14T16:32:37;32.40;68.00
18073;DHT22;9161;47.348;9.648;2022-08-14T16:37:39;31.30;69.30
18073;DHT22;9161;47.348;9.648;2022-08-14T16:42:25;31.10;71.80
18073;DHT22;9161;47.348;9.648;2022-08-14T16:47:31;31.30;71.50
18073;DHT22;9161;47.348;9.648;2022-08-14T16:52:17;31.10;71.10
18073;DHT22;9161;47.348;9.648;2022-08-14T16:57:24;31.10;71.80
18073;DHT22;9161;47.348;9.648;2022-08-14T17:02:13;30.80;72.20
18073;DHT22;9161;47.348;9.648;2022-08-14T17:07:00;29.90;73.50
18073;DHT22;9161;47.348;9.648;2022-08-14T17:11:50;29.60;75.20
18073;DHT22;9161;47.348;9.648;2022-08-14T17:16:36;29.30;76.10
18073;DHT22;9161;47.348;9.648;2022-08-14T17:21:22;28.70;77.20
18073;DHT22;9161;47.348;9.648;2022-08-14T17:26:31;28.60;77.40
18073;DHT22;9161;47.348;9.648;2022-08-14T17:31:15;28.40;77.90
18073;DHT22;9161;47.348;9.648;2022-08-14T17:36:13;28.30;80.90
18073;DHT22;9161;47.348;9.648;2022-08-14T17:41:16;28.10;80.40
18073;DHT22;9161;47.348;9.648;2022-08-14T17:46:08;27.90;82.30
18073;DHT22;9161;47.348;9.648;2022-08-14T17:50:58;27.50;82.50
18073;DHT22;9161;47.348;9.648;2022-08-14T17:55:45;27.10;83.20
18073;DHT22;9161;47.348;9.648;2022-08-14T18:00:46;27.00;82.80
18073;DHT22;9161;47.348;9.648;2022-08-14T18:05:30;26.70;81.50
18073;DHT22;9161;47.348;9.648;2022-08-14T18:10:40;26.50;82.50
18073;DHT22;9161;47.348;9.648;2022-08-14T18:15:39;26.20;85.60
18073;DHT22;9161;47.348;9.648;2022-08-14T18:20:33;25.80;84.50
18073;DHT22;9161;47.348;9.648;2022-08-14T18:25:45;25.40;84.70
18073;DHT22;9161;47.348;9.648;2022-08-14T18:30:29;25.20;84.00
18073;DHT22;9161;47.348;9.648;2022-08-14T18:35:42;25.10;84.50
18073;DHT22;9161;47.348;9.648;2022-08-14T18:40:40;25.00;86.00
18073;DHT22;9161;47.348;9.648;2022-08-14T18:45:26;24.80;87.10
18073;DHT22;9161;47.348;9.648;2022-08-14T18:50:11;24.60;88.00
18073;DHT22;9161;47.348;9.648;2022-08-14T18:55:42;24.50;89.70
18073;DHT22;9161;47.348;9.648;2022-08-14T19:00:46;24.30;90.00
18073;DHT22;9161;47.348;9.648;2022-08-14T19:05:56;24.30;88.40
18073;DHT22;9161;47.348;9.648;2022-08-14T19:10:42;24.20;90.00
18073;DHT22;9161;47.348;9.648;2022-08-14T19:15:34;24.10;91.20
18073;DHT22;9161;47.348;9.648;2022-08-14T19:20:21;24.00;91.20
18073;DHT22;9161;47.348;9.648;2022-08-14T19:25:06;24.00;90.90
18073;DHT22;9161;47.348;9.648;2022-08-14T19:30:20;24.00;91.00
18073;DHT22;9161;47.348;9.648;2022-08-14T19:35:41;24.00;91.40
18073;DHT22;9161;47.348;9.648;2022-08-14T19:40:33;24.00;90.70
18073;DHT22;9161;47.348;9.648;2022-08-14T19:45:22;24.10;90.30
18073;DHT22;9161;47.348;9.648;2022-08-14T19:50:07;24.10;90.60
18073;DHT22;9161;47.348;9.648;2022-08-14T19:55:14;24.00;91.20
18073;DHT22;9161;47.348;9.648;2022-08-14T20:00:05;24.00;91.80
18073;DHT22;9161;47.348;9.648;2022-08-14T20:05:11;23.80;91.80
18073;DHT22;9161;47.348;9.648;2022-08-14T20:09:59;23.70;91.60
18073;DHT22;9161;47.348;9.648;2022-08-14T20:15:04;23.70;92.70
18073;DHT22;9161;47.348;9.648;2022-08-14T20:19:49;23.80;90.70
18073;DHT22;9161;47.348;9.648;2022-08-14T20:24:36;24.00;91.20
18073;DHT22;9161;47.348;9.648;2022-08-14T20:29:26;23.60;93.20
18073;DHT22;9161;47.348;9.648;2022-08-14T20:34:19;23.50;93.20
18073;DHT22;9161;47.348;9.648;2022-08-14T20:39:16;23.40;93.80
18073;DHT22;9161;47.348;9.648;2022-08-14T20:44:02;23.50;94.00
18073;DHT22;9161;47.348;9.648;2022-08-14T20:49:10;23.30;94.20
18073;DHT22;9161;47.348;9.648;2022-08-14T20:53:59;23.30;95.40
18073;DHT22;9161;47.348;9.648;2022-08-14T20:58:43;23.10;95.40
18073;DHT22;9161;47.348;9.648;2022-08-14T21:03:33;23.00;95.20
18073;DHT22;9161;47.348;9.648;2022-08-14T21:08:39;23.00;95.20
18073;DHT22;9161;47.348;9.648;2022-08-14T21:13:27;23.00;95.50
18073;DHT22;9161;47.348;9.648;2022-08-14T21:18:36;23.00;96.90
18073;DHT22;9161;47.348;9.648;2022-08-14T21:23:28;22.80;97.10
18073;DHT22;9161;47.348;9.648;2022-08-14T21:28:13;22.50;97.50
18073;DHT22;9161;47.348;9.648;2022-08-14T21:33:11;22.40;97.20
18073;DHT22;9161;47.348;9.648;2022-08-14T21:37:56;22.40;97.20
18073;DHT22;9161;47.348;9.648;2022-08-14T21:42:41;22.40;97.40
18073;DHT22;9161;47.348;9.648;2022-08-14T21:47:28;22.40;97.50
18073;DHT22;9161;47.348;9.648;2022-08-14T21:52:15;22.40;97.70
18073;DHT22;9161;47.348;9.648;2022-08-14T21:57:20;22.50;98.20
18073;DHT22;9161;47.348;9.648;2022-08-14T22:02:26;22.20;99.30
18073;DHT22;9161;47.348;9.648;2022-08-14T22:07:15;22.00;99.30
18073;DHT22;9161;47.348;9.648;2022-08-14T22:11:59;21.90;99.70
18073;DHT22;9161;47.348;9.648;2022-08-14T22:16:49;21.90;99.90
18073;DHT22;9161;47.348;9.648;2022-08-14T22:21:53;21.90;99.90
18073;DHT22;9161;47.348;9.648;2022-08-14T22:26:39;21.80;99.90
18073;DHT22;9161;47.348;9.648;2022-08-14T22:31:25;21.60;99.90
18073;DHT22;9161;47.348;9.648;2022-08-14T22:36:21;21.30;99.90
18073;DHT22;9161;47.348;9.648;2022-08-14T22:41:30;21.20;99.90
18073;DHT22;9161;47.348;9.648;2022-08-14T22:46:24;21.20;99.90
18073;DHT22;9161;47.348;9.648;2022-08-14T22:51:09;21.20;99.90
18073;DHT22;9161;47.348;9.648;2022-08-14T22:55:56;21.20;99.90
18073;DHT22;9161;47.348;9.648;2022-08-14T23:00:40;21.10;99.90
18073;DHT22;9161;47.348;9.648;2022-08-14T23:05:24;21.00;99.90
18073;DHT22;9161;47.348;9.648;2022-08-14T23:10:28;21.10;99.90
18073;DHT22;9161;47.348;9.648;2022-08-14T23:15:19;21.10;99.90
18073;DHT22;9161;47.348;9.648;2022-08-14T23:20:04;20.90;99.90
18073;DHT22;9161;47.348;9.648;2022-08-14T23:25:00;21.00;99.90
18073;DHT22;9161;47.348;9.648;2022-08-14T23:29:43;20.80;99.90
18073;DHT22;9161;47.348;9.648;2022-08-14T23:34:31;20.70;99.90
18073;DHT22;9161;47.348;9.648;2022-08-14T23:39:31;20.50;99.90
18073;DHT22;9161;47.348;9.648;2022-08-14T23:44:16;20.50;99.90
18073;DHT22;9161;47.348;9.648;2022-08-14T23:49:03;20.60;99.90
18073;DHT22;9161;47.348;9.648;2022-08-14T23:53:49;20.70;99.90
18073;DHT22;9161;47.348;9.648;2022-08-14T23:58:33;20.70;99.90
